sensor_id;sensor_type;location;lat;lon;timestamp;P1;durP1;ratioP1;P2;durP2;ratioP2
68923;SDS011;55961;52.156;20.942;2023-03-14T00:00:48;10.55;;;4.78;;
68923;SDS011;55961;52.156;20.942;2023-03-14T00:03:20;11.05;;;4.78;;
68923;SDS011;55961;52.156;20.942;2023-03-14T00:05:46;12.43;;;5.50;;
68923;SDS011;55961;52.156;20.942;2023-03-14T00:08:12;12.27;;;4.68;;
68923;SDS011;55961;52.156;20.942;2023-03-14T00:10:38;12.18;;;5.60;;
68923;SDS011;55961;52.156;20.942;2023-03-14T00:13:04;11.57;;;5.20;;
68923;SDS011;55961;52.156;20.942;2023-03-14T00:15:32;14.38;;;6.13;;
68923;SDS011;55961;52.156;20.942;2023-03-14T00:17:59;13.90;;;5.40;;
68923;SDS011;55961;52.156;20.942;2023-03-14T00:20:25;12.85;;;5.95;;
68923;SDS011;55961;52.156;20.942;2023-03-14T00:22:51;13.27;;;6.20;;
68923;SDS011;55961;52.156;20.942;2023-03-14T00:25:17;15.65;;;5.93;;
68923;SDS011;55961;52.156;20.942;2023-03-14T00:27:43;12.68;;;6.63;;
68923;SDS011;55961;52.156;20.942;2023-03-14T00:30:09;12.63;;;6.00;;
68923;SDS011;55961;52.156;20.942;2023-03-14T00:32:35;13.23;;;5.78;;
68923;SDS011;55961;52.156;20.942;2023-03-14T00:35:02;12.37;;;5.87;;
68923;SDS011;55961;52.156;20.942;2023-03-14T00:37:29;13.93;;;5.43;;
68923;SDS011;55961;52.156;20.942;2023-03-14T00:39:55;15.43;;;5.75;;
68923;SDS011;55961;52.156;20.942;2023-03-14T00:42:21;14.10;;;5.50;;
68923;SDS011;55961;52.156;20.942;2023-03-14T00:44:47;10.98;;;5.13;;
68923;SDS011;55961;52.156;20.942;2023-03-14T00:47:13;12.70;;;5.63;;
68923;SDS011;55961;52.156;20.942;2023-03-14T00:49:39;10.05;;;4.15;;
68923;SDS011;55961;52.156;20.942;2023-03-14T00:52:05;13.23;;;5.68;;
68923;SDS011;55961;52.156;20.942;2023-03-14T00:54:31;11.50;;;4.30;;
68923;SDS011;55961;52.156;20.942;2023-03-14T00:56:57;12.82;;;5.78;;
68923;SDS011;55961;52.156;20.942;2023-03-14T00:59:23;12.55;;;6.00;;
68923;SDS011;55961;52.156;20.942;2023-03-14T01:01:49;10.30;;;4.15;;
68923;SDS011;55961;52.156;20.942;2023-03-14T01:04:15;12.30;;;4.07;;
68923;SDS011;55961;52.156;20.942;2023-03-14T01:06:41;12.18;;;5.22;;
68923;SDS011;55961;52.156;20.942;2023-03-14T01:09:07;10.32;;;4.60;;
68923;SDS011;55961;52.156;20.942;2023-03-14T01:11:33;12.23;;;5.50;;
68923;SDS011;55961;52.156;20.942;2023-03-14T01:14:01;12.57;;;4.93;;
68923;SDS011;55961;52.156;20.942;2023-03-14T01:16:28;13.52;;;5.80;;
68923;SDS011;55961;52.156;20.942;2023-03-14T01:18:56;8.93;;;4.22;;
68923;SDS011;55961;52.156;20.942;2023-03-14T01:21:24;11.23;;;5.20;;
68923;SDS011;55961;52.156;20.942;2023-03-14T01:23:52;13.25;;;5.10;;
68923;SDS011;55961;52.156;20.942;2023-03-14T01:26:20;12.43;;;5.53;;
68923;SDS011;55961;52.156;20.942;2023-03-14T01:28:48;10.90;;;3.58;;
68923;SDS011;55961;52.156;20.942;2023-03-14T01:31:15;14.95;;;5.32;;
68923;SDS011;55961;52.156;20.942;2023-03-14T01:33:47;11.40;;;4.23;;
68923;SDS011;55961;52.156;20.942;2023-03-14T01:36:13;12.07;;;4.63;;
68923;SDS011;55961;52.156;20.942;2023-03-14T01:38:40;11.15;;;4.95;;
68923;SDS011;55961;52.156;20.942;2023-03-14T01:41:07;12.95;;;5.40;;
68923;SDS011;55961;52.156;20.942;2023-03-14T01:43:37;11.40;;;5.03;;
68923;SDS011;55961;52.156;20.942;2023-03-14T01:48:32;11.52;;;4.95;;
68923;SDS011;55961;52.156;20.942;2023-03-14T01:51:22;12.57;;;4.75;;
68923;SDS011;55961;52.156;20.942;2023-03-14T01:54:07;13.10;;;4.63;;
68923;SDS011;55961;52.156;20.942;2023-03-14T01:59:43;11.90;;;4.82;;
68923;SDS011;55961;52.156;20.942;2023-03-14T02:02:17;12.23;;;5.28;;
68923;SDS011;55961;52.156;20.942;2023-03-14T02:04:44;12.48;;;5.35;;
68923;SDS011;55961;52.156;20.942;2023-03-14T02:07:24;12.50;;;5.20;;
68923;SDS011;55961;52.156;20.942;2023-03-14T02:09:56;12.13;;;4.57;;
68923;SDS011;55961;52.156;20.942;2023-03-14T02:12:23;13.73;;;5.40;;
68923;SDS011;55961;52.156;20.942;2023-03-14T02:14:49;10.50;;;4.05;;
68923;SDS011;55961;52.156;20.942;2023-03-14T02:17:16;13.77;;;5.33;;
68923;SDS011;55961;52.156;20.942;2023-03-14T02:22:18;12.77;;;5.68;;
68923;SDS011;55961;52.156;20.942;2023-03-14T02:25:08;11.02;;;4.65;;
68923;SDS011;55961;52.156;20.942;2023-03-14T02:27:38;10.18;;;4.78;;
68923;SDS011;55961;52.156;20.942;2023-03-14T02:30:09;9.43;;;4.13;;
68923;SDS011;55961;52.156;20.942;2023-03-14T02:32:39;12.07;;;4.47;;
68923;SDS011;55961;52.156;20.942;2023-03-14T02:35:08;10.90;;;4.70;;
68923;SDS011;55961;52.156;20.942;2023-03-14T02:37:38;10.57;;;4.20;;
68923;SDS011;55961;52.156;20.942;2023-03-14T02:40:09;12.52;;;4.70;;
68923;SDS011;55961;52.156;20.942;2023-03-14T02:42:35;9.87;;;4.63;;
68923;SDS011;55961;52.156;20.942;2023-03-14T02:47:33;9.57;;;4.32;;
68923;SDS011;55961;52.156;20.942;2023-03-14T02:50:05;14.55;;;5.00;;
68923;SDS011;55961;52.156;20.942;2023-03-14T02:52:34;9.65;;;4.75;;
68923;SDS011;55961;52.156;20.942;2023-03-14T02:55:00;10.60;;;4.20;;
68923;SDS011;55961;52.156;20.942;2023-03-14T02:57:26;11.18;;;4.30;;
68923;SDS011;55961;52.156;20.942;2023-03-14T02:59:52;11.45;;;4.72;;
68923;SDS011;55961;52.156;20.942;2023-03-14T03:02:18;9.43;;;4.10;;
68923;SDS011;55961;52.156;20.942;2023-03-14T03:04:44;9.18;;;3.80;;
68923;SDS011;55961;52.156;20.942;2023-03-14T03:07:10;10.63;;;5.07;;
68923;SDS011;55961;52.156;20.942;2023-03-14T03:09:36;11.95;;;4.90;;
68923;SDS011;55961;52.156;20.942;2023-03-14T03:12:02;9.27;;;4.03;;
68923;SDS011;55961;52.156;20.942;2023-03-14T03:14:28;11.40;;;4.68;;
68923;SDS011;55961;52.156;20.942;2023-03-14T03:16:54;9.32;;;4.07;;
68923;SDS011;55961;52.156;20.942;2023-03-14T03:19:22;7.77;;;3.87;;
68923;SDS011;55961;52.156;20.942;2023-03-14T03:21:48;12.25;;;3.88;;
68923;SDS011;55961;52.156;20.942;2023-03-14T03:24:14;9.70;;;4.13;;
68923;SDS011;55961;52.156;20.942;2023-03-14T03:26:39;10.68;;;4.32;;
68923;SDS011;55961;52.156;20.942;2023-03-14T03:29:05;9.77;;;3.83;;
68923;SDS011;55961;52.156;20.942;2023-03-14T03:31:31;9.07;;;4.00;;
68923;SDS011;55961;52.156;20.942;2023-03-14T03:33:57;13.73;;;5.53;;
68923;SDS011;55961;52.156;20.942;2023-03-14T03:36:24;11.37;;;5.03;;
68923;SDS011;55961;52.156;20.942;2023-03-14T03:38:50;13.63;;;5.32;;
68923;SDS011;55961;52.156;20.942;2023-03-14T03:41:16;10.55;;;4.38;;
68923;SDS011;55961;52.156;20.942;2023-03-14T03:43:42;8.63;;;4.35;;
68923;SDS011;55961;52.156;20.942;2023-03-14T03:46:08;11.80;;;4.47;;
68923;SDS011;55961;52.156;20.942;2023-03-14T03:48:35;12.40;;;5.28;;
68923;SDS011;55961;52.156;20.942;2023-03-14T03:51:01;8.82;;;3.88;;
68923;SDS011;55961;52.156;20.942;2023-03-14T03:53:27;9.63;;;4.10;;
68923;SDS011;55961;52.156;20.942;2023-03-14T03:55:53;9.23;;;5.10;;
68923;SDS011;55961;52.156;20.942;2023-03-14T03:58:19;11.13;;;4.32;;
68923;SDS011;55961;52.156;20.942;2023-03-14T04:00:45;9.20;;;4.13;;
68923;SDS011;55961;52.156;20.942;2023-03-14T04:03:11;8.40;;;3.40;;
68923;SDS011;55961;52.156;20.942;2023-03-14T04:05:37;9.38;;;3.65;;
68923;SDS011;55961;52.156;20.942;2023-03-14T04:08:03;10.32;;;3.83;;
68923;SDS011;55961;52.156;20.942;2023-03-14T04:10:30;6.45;;;3.13;;
68923;SDS011;55961;52.156;20.942;2023-03-14T04:12:59;9.40;;;3.90;;
68923;SDS011;55961;52.156;20.942;2023-03-14T04:15:24;7.90;;;3.25;;
68923;SDS011;55961;52.156;20.942;2023-03-14T04:17:51;10.80;;;3.53;;
68923;SDS011;55961;52.156;20.942;2023-03-14T04:20:21;11.27;;;5.45;;
68923;SDS011;55961;52.156;20.942;2023-03-14T04:22:47;9.23;;;4.07;;
68923;SDS011;55961;52.156;20.942;2023-03-14T04:25:12;7.93;;;2.88;;
68923;SDS011;55961;52.156;20.942;2023-03-14T04:27:38;7.65;;;3.42;;
68923;SDS011;55961;52.156;20.942;2023-03-14T04:30:04;11.27;;;3.40;;
68923;SDS011;55961;52.156;20.942;2023-03-14T04:32:31;9.20;;;3.00;;
68923;SDS011;55961;52.156;20.942;2023-03-14T04:34:56;7.13;;;2.95;;
68923;SDS011;55961;52.156;20.942;2023-03-14T04:37:22;7.47;;;3.00;;
68923;SDS011;55961;52.156;20.942;2023-03-14T04:39:48;6.50;;;3.03;;
68923;SDS011;55961;52.156;20.942;2023-03-14T04:42:14;10.23;;;3.90;;
68923;SDS011;55961;52.156;20.942;2023-03-14T04:44:40;10.80;;;4.17;;
68923;SDS011;55961;52.156;20.942;2023-03-14T04:47:08;10.45;;;4.70;;
68923;SDS011;55961;52.156;20.942;2023-03-14T04:49:34;10.88;;;5.25;;
68923;SDS011;55961;52.156;20.942;2023-03-14T04:52:00;9.57;;;3.50;;
68923;SDS011;55961;52.156;20.942;2023-03-14T04:54:26;9.73;;;3.10;;
68923;SDS011;55961;52.156;20.942;2023-03-14T04:56:52;7.35;;;3.00;;
68923;SDS011;55961;52.156;20.942;2023-03-14T04:59:18;8.80;;;3.17;;
68923;SDS011;55961;52.156;20.942;2023-03-14T05:01:44;9.82;;;3.78;;
68923;SDS011;55961;52.156;20.942;2023-03-14T05:04:10;7.72;;;3.38;;
68923;SDS011;55961;52.156;20.942;2023-03-14T05:06:36;8.52;;;3.20;;
68923;SDS011;55961;52.156;20.942;2023-03-14T05:09:02;6.77;;;2.93;;
68923;SDS011;55961;52.156;20.942;2023-03-14T05:11:30;7.97;;;3.55;;
68923;SDS011;55961;52.156;20.942;2023-03-14T05:13:57;9.07;;;3.70;;
68923;SDS011;55961;52.156;20.942;2023-03-14T05:16:23;7.90;;;3.22;;
68923;SDS011;55961;52.156;20.942;2023-03-14T05:18:50;7.80;;;3.00;;
68923;SDS011;55961;52.156;20.942;2023-03-14T05:21:16;7.05;;;3.10;;
68923;SDS011;55961;52.156;20.942;2023-03-14T05:23:42;8.40;;;3.83;;
68923;SDS011;55961;52.156;20.942;2023-03-14T05:26:08;10.13;;;4.43;;
68923;SDS011;55961;52.156;20.942;2023-03-14T05:28:33;12.95;;;4.95;;
68923;SDS011;55961;52.156;20.942;2023-03-14T05:30:59;10.40;;;3.97;;
68923;SDS011;55961;52.156;20.942;2023-03-14T05:33:25;10.17;;;4.60;;
68923;SDS011;55961;52.156;20.942;2023-03-14T05:35:51;11.20;;;4.97;;
68923;SDS011;55961;52.156;20.942;2023-03-14T05:38:17;11.75;;;4.07;;
68923;SDS011;55961;52.156;20.942;2023-03-14T05:40:44;6.10;;;2.77;;
68923;SDS011;55961;52.156;20.942;2023-03-14T05:43:10;8.13;;;3.13;;
68923;SDS011;55961;52.156;20.942;2023-03-14T05:45:36;9.95;;;3.10;;
68923;SDS011;55961;52.156;20.942;2023-03-14T05:48:02;8.10;;;3.38;;
68923;SDS011;55961;52.156;20.942;2023-03-14T05:50:28;9.27;;;3.37;;
68923;SDS011;55961;52.156;20.942;2023-03-14T05:52:54;9.15;;;3.53;;
68923;SDS011;55961;52.156;20.942;2023-03-14T05:55:20;10.65;;;3.70;;
68923;SDS011;55961;52.156;20.942;2023-03-14T05:57:45;8.70;;;3.27;;
68923;SDS011;55961;52.156;20.942;2023-03-14T06:00:12;7.63;;;3.45;;
68923;SDS011;55961;52.156;20.942;2023-03-14T06:02:38;9.93;;;3.33;;
68923;SDS011;55961;52.156;20.942;2023-03-14T06:05:04;9.80;;;3.15;;
68923;SDS011;55961;52.156;20.942;2023-03-14T06:07:30;7.07;;;3.27;;
68923;SDS011;55961;52.156;20.942;2023-03-14T06:09:56;9.02;;;3.60;;
68923;SDS011;55961;52.156;20.942;2023-03-14T06:12:23;6.80;;;3.33;;
68923;SDS011;55961;52.156;20.942;2023-03-14T06:14:49;9.65;;;3.97;;
68923;SDS011;55961;52.156;20.942;2023-03-14T06:17:15;10.13;;;4.17;;
68923;SDS011;55961;52.156;20.942;2023-03-14T06:19:41;12.85;;;4.75;;
68923;SDS011;55961;52.156;20.942;2023-03-14T06:22:07;11.90;;;3.85;;
68923;SDS011;55961;52.156;20.942;2023-03-14T06:24:33;10.52;;;4.70;;
68923;SDS011;55961;52.156;20.942;2023-03-14T06:26:59;9.17;;;3.43;;
68923;SDS011;55961;52.156;20.942;2023-03-14T06:29:25;9.43;;;3.13;;
68923;SDS011;55961;52.156;20.942;2023-03-14T06:31:51;9.57;;;2.83;;
68923;SDS011;55961;52.156;20.942;2023-03-14T06:34:17;8.88;;;2.90;;
68923;SDS011;55961;52.156;20.942;2023-03-14T06:36:42;7.60;;;3.08;;
68923;SDS011;55961;52.156;20.942;2023-03-14T06:39:09;8.43;;;3.28;;
68923;SDS011;55961;52.156;20.942;2023-03-14T06:41:34;7.73;;;2.47;;
68923;SDS011;55961;52.156;20.942;2023-03-14T06:44:00;8.23;;;2.90;;
68923;SDS011;55961;52.156;20.942;2023-03-14T06:46:26;8.50;;;3.33;;
68923;SDS011;55961;52.156;20.942;2023-03-14T06:48:52;10.10;;;3.00;;
68923;SDS011;55961;52.156;20.942;2023-03-14T06:51:18;6.40;;;2.97;;
68923;SDS011;55961;52.156;20.942;2023-03-14T06:53:44;6.28;;;3.03;;
68923;SDS011;55961;52.156;20.942;2023-03-14T06:56:10;8.33;;;3.30;;
68923;SDS011;55961;52.156;20.942;2023-03-14T06:58:36;7.20;;;3.70;;
68923;SDS011;55961;52.156;20.942;2023-03-14T07:01:02;9.68;;;3.40;;
68923;SDS011;55961;52.156;20.942;2023-03-14T07:03:28;7.10;;;3.30;;
68923;SDS011;55961;52.156;20.942;2023-03-14T07:05:54;8.30;;;2.80;;
68923;SDS011;55961;52.156;20.942;2023-03-14T07:08:20;7.82;;;2.88;;
68923;SDS011;55961;52.156;20.942;2023-03-14T07:10:46;6.68;;;2.70;;
68923;SDS011;55961;52.156;20.942;2023-03-14T07:13:12;8.00;;;3.00;;
68923;SDS011;55961;52.156;20.942;2023-03-14T07:15:38;9.23;;;3.80;;
68923;SDS011;55961;52.156;20.942;2023-03-14T07:18:04;8.65;;;3.53;;
68923;SDS011;55961;52.156;20.942;2023-03-14T07:20:30;6.30;;;2.83;;
68923;SDS011;55961;52.156;20.942;2023-03-14T07:22:57;8.27;;;3.20;;
68923;SDS011;55961;52.156;20.942;2023-03-14T07:25:25;8.90;;;3.30;;
68923;SDS011;55961;52.156;20.942;2023-03-14T07:27:51;9.48;;;3.75;;
68923;SDS011;55961;52.156;20.942;2023-03-14T07:30:17;7.10;;;3.50;;
68923;SDS011;55961;52.156;20.942;2023-03-14T07:32:43;5.97;;;2.70;;
68923;SDS011;55961;52.156;20.942;2023-03-14T07:35:09;8.63;;;3.00;;
68923;SDS011;55961;52.156;20.942;2023-03-14T07:37:35;9.15;;;3.60;;
68923;SDS011;55961;52.156;20.942;2023-03-14T07:40:00;11.67;;;4.03;;
68923;SDS011;55961;52.156;20.942;2023-03-14T07:42:26;9.88;;;3.20;;
68923;SDS011;55961;52.156;20.942;2023-03-14T07:44:52;7.03;;;3.00;;
68923;SDS011;55961;52.156;20.942;2023-03-14T07:47:18;7.45;;;3.05;;
68923;SDS011;55961;52.156;20.942;2023-03-14T07:49:44;7.30;;;3.20;;
68923;SDS011;55961;52.156;20.942;2023-03-14T07:52:10;7.47;;;3.17;;
68923;SDS011;55961;52.156;20.942;2023-03-14T07:54:36;7.03;;;3.40;;
68923;SDS011;55961;52.156;20.942;2023-03-14T07:57:02;7.55;;;3.35;;
68923;SDS011;55961;52.156;20.942;2023-03-14T07:59:29;6.57;;;2.60;;
68923;SDS011;55961;52.156;20.942;2023-03-14T08:01:55;8.00;;;2.70;;
68923;SDS011;55961;52.156;20.942;2023-03-14T08:04:21;9.57;;;3.10;;
68923;SDS011;55961;52.156;20.942;2023-03-14T08:06:47;7.72;;;3.42;;
68923;SDS011;55961;52.156;20.942;2023-03-14T08:09:12;6.90;;;3.03;;
68923;SDS011;55961;52.156;20.942;2023-03-14T08:11:39;11.67;;;3.50;;
68923;SDS011;55961;52.156;20.942;2023-03-14T08:14:05;6.30;;;3.50;;
68923;SDS011;55961;52.156;20.942;2023-03-14T08:16:31;8.00;;;3.47;;
68923;SDS011;55961;52.156;20.942;2023-03-14T08:18:57;14.27;;;5.07;;
68923;SDS011;55961;52.156;20.942;2023-03-14T08:21:23;13.23;;;4.82;;
68923;SDS011;55961;52.156;20.942;2023-03-14T08:23:49;9.65;;;3.45;;
68923;SDS011;55961;52.156;20.942;2023-03-14T08:26:15;11.43;;;4.00;;
68923;SDS011;55961;52.156;20.942;2023-03-14T08:28:40;11.02;;;3.33;;
68923;SDS011;55961;52.156;20.942;2023-03-14T08:31:06;10.38;;;4.15;;
68923;SDS011;55961;52.156;20.942;2023-03-14T08:33:32;9.57;;;3.57;;
68923;SDS011;55961;52.156;20.942;2023-03-14T08:35:59;11.20;;;3.95;;
68923;SDS011;55961;52.156;20.942;2023-03-14T08:38:25;9.27;;;3.13;;
68923;SDS011;55961;52.156;20.942;2023-03-14T08:40:58;9.00;;;3.13;;
68923;SDS011;55961;52.156;20.942;2023-03-14T08:43:26;6.90;;;2.83;;
68923;SDS011;55961;52.156;20.942;2023-03-14T08:45:53;10.68;;;3.53;;
68923;SDS011;55961;52.156;20.942;2023-03-14T08:48:22;7.80;;;3.20;;
68923;SDS011;55961;52.156;20.942;2023-03-14T08:50:48;6.88;;;3.33;;
68923;SDS011;55961;52.156;20.942;2023-03-14T08:53:14;7.00;;;3.27;;
68923;SDS011;55961;52.156;20.942;2023-03-14T08:55:40;8.60;;;2.70;;
68923;SDS011;55961;52.156;20.942;2023-03-14T08:58:06;6.30;;;2.53;;
68923;SDS011;55961;52.156;20.942;2023-03-14T09:00:32;8.50;;;2.95;;
68923;SDS011;55961;52.156;20.942;2023-03-14T09:02:58;7.37;;;2.83;;
68923;SDS011;55961;52.156;20.942;2023-03-14T09:05:24;6.95;;;2.92;;
68923;SDS011;55961;52.156;20.942;2023-03-14T09:07:50;6.65;;;2.85;;
68923;SDS011;55961;52.156;20.942;2023-03-14T09:10:16;6.57;;;3.13;;
68923;SDS011;55961;52.156;20.942;2023-03-14T09:12:41;5.28;;;2.17;;
68923;SDS011;55961;52.156;20.942;2023-03-14T09:15:08;7.20;;;3.30;;
68923;SDS011;55961;52.156;20.942;2023-03-14T09:17:34;6.70;;;2.78;;
68923;SDS011;55961;52.156;20.942;2023-03-14T09:20:02;7.72;;;2.55;;
68923;SDS011;55961;52.156;20.942;2023-03-14T09:22:31;4.90;;;2.70;;
68923;SDS011;55961;52.156;20.942;2023-03-14T09:24:58;6.80;;;3.47;;
68923;SDS011;55961;52.156;20.942;2023-03-14T09:27:24;7.25;;;2.53;;
68923;SDS011;55961;52.156;20.942;2023-03-14T09:29:50;8.57;;;3.07;;
68923;SDS011;55961;52.156;20.942;2023-03-14T09:32:16;7.50;;;3.10;;
68923;SDS011;55961;52.156;20.942;2023-03-14T09:34:42;4.50;;;2.00;;
68923;SDS011;55961;52.156;20.942;2023-03-14T09:37:08;6.07;;;2.27;;
68923;SDS011;55961;52.156;20.942;2023-03-14T09:39:34;5.07;;;2.35;;
68923;SDS011;55961;52.156;20.942;2023-03-14T09:42:01;7.80;;;3.47;;
68923;SDS011;55961;52.156;20.942;2023-03-14T09:44:31;7.50;;;2.25;;
68923;SDS011;55961;52.156;20.942;2023-03-14T09:47:03;6.70;;;2.53;;
68923;SDS011;55961;52.156;20.942;2023-03-14T09:49:33;6.13;;;2.42;;
68923;SDS011;55961;52.156;20.942;2023-03-14T09:52:02;8.60;;;2.65;;
68923;SDS011;55961;52.156;20.942;2023-03-14T09:54:35;6.43;;;1.98;;
68923;SDS011;55961;52.156;20.942;2023-03-14T09:57:04;5.80;;;2.40;;
68923;SDS011;55961;52.156;20.942;2023-03-14T09:59:35;5.20;;;1.93;;
68923;SDS011;55961;52.156;20.942;2023-03-14T10:02:02;6.30;;;2.47;;
68923;SDS011;55961;52.156;20.942;2023-03-14T10:04:40;9.15;;;2.63;;
68923;SDS011;55961;52.156;20.942;2023-03-14T10:07:13;5.70;;;2.22;;
68923;SDS011;55961;52.156;20.942;2023-03-14T10:09:44;7.35;;;2.47;;
68923;SDS011;55961;52.156;20.942;2023-03-14T10:12:12;8.47;;;1.77;;
68923;SDS011;55961;52.156;20.942;2023-03-14T10:14:45;7.95;;;2.65;;
68923;SDS011;55961;52.156;20.942;2023-03-14T10:17:17;6.50;;;2.45;;
68923;SDS011;55961;52.156;20.942;2023-03-14T10:19:51;6.93;;;2.22;;
68923;SDS011;55961;52.156;20.942;2023-03-14T10:22:24;8.18;;;2.58;;
68923;SDS011;55961;52.156;20.942;2023-03-14T10:24:55;4.77;;;2.00;;
68923;SDS011;55961;52.156;20.942;2023-03-14T10:27:47;8.23;;;2.78;;
68923;SDS011;55961;52.156;20.942;2023-03-14T10:30:26;6.00;;;2.75;;
68923;SDS011;55961;52.156;20.942;2023-03-14T10:33:23;5.75;;;2.13;;
68923;SDS011;55961;52.156;20.942;2023-03-14T10:35:54;7.70;;;1.80;;
68923;SDS011;55961;52.156;20.942;2023-03-14T10:38:29;6.03;;;2.07;;
68923;SDS011;55961;52.156;20.942;2023-03-14T10:40:57;5.60;;;2.13;;
68923;SDS011;55961;52.156;20.942;2023-03-14T10:43:33;6.13;;;2.53;;
68923;SDS011;55961;52.156;20.942;2023-03-14T10:46:05;8.60;;;2.83;;
68923;SDS011;55961;52.156;20.942;2023-03-14T10:48:39;5.07;;;1.90;;
68923;SDS011;55961;52.156;20.942;2023-03-14T10:51:08;6.10;;;2.10;;
68923;SDS011;55961;52.156;20.942;2023-03-14T10:53:41;6.72;;;2.10;;
68923;SDS011;55961;52.156;20.942;2023-03-14T10:56:17;6.50;;;2.50;;
68923;SDS011;55961;52.156;20.942;2023-03-14T10:58:46;5.03;;;2.10;;
68923;SDS011;55961;52.156;20.942;2023-03-14T11:01:37;5.07;;;2.30;;
68923;SDS011;55961;52.156;20.942;2023-03-14T11:07:15;4.90;;;2.22;;
68923;SDS011;55961;52.156;20.942;2023-03-14T11:10:03;5.53;;;2.40;;
68923;SDS011;55961;52.156;20.942;2023-03-14T11:12:55;6.10;;;2.47;;
68923;SDS011;55961;52.156;20.942;2023-03-14T11:26:24;7.20;;;2.17;;
68923;SDS011;55961;52.156;20.942;2023-03-14T11:29:16;7.68;;;2.55;;
68923;SDS011;55961;52.156;20.942;2023-03-14T11:31:45;6.30;;;1.90;;
68923;SDS011;55961;52.156;20.942;2023-03-14T11:37:04;6.03;;;2.38;;
68923;SDS011;55961;52.156;20.942;2023-03-14T11:39:39;8.55;;;2.90;;
68923;SDS011;55961;52.156;20.942;2023-03-14T11:42:11;7.47;;;2.75;;
68923;SDS011;55961;52.156;20.942;2023-03-14T11:44:40;8.63;;;2.87;;
68923;SDS011;55961;52.156;20.942;2023-03-14T11:47:19;6.78;;;2.83;;
68923;SDS011;55961;52.156;20.942;2023-03-14T11:52:50;7.40;;;2.72;;
68923;SDS011;55961;52.156;20.942;2023-03-14T11:55:26;9.85;;;3.22;;
68923;SDS011;55961;52.156;20.942;2023-03-14T11:57:58;10.17;;;3.17;;
68923;SDS011;55961;52.156;20.942;2023-03-14T12:00:28;7.97;;;3.45;;
68923;SDS011;55961;52.156;20.942;2023-03-14T12:13:45;8.40;;;3.67;;
68923;SDS011;55961;52.156;20.942;2023-03-14T12:18:49;8.70;;;3.05;;
68923;SDS011;55961;52.156;20.942;2023-03-14T12:21:17;12.82;;;3.80;;
68923;SDS011;55961;52.156;20.942;2023-03-14T12:23:44;8.17;;;3.40;;
68923;SDS011;55961;52.156;20.942;2023-03-14T12:26:20;7.70;;;3.38;;
68923;SDS011;55961;52.156;20.942;2023-03-14T12:34:01;7.57;;;3.85;;
68923;SDS011;55961;52.156;20.942;2023-03-14T12:39:17;8.73;;;3.40;;
68923;SDS011;55961;52.156;20.942;2023-03-14T12:42:00;7.18;;;3.60;;
68923;SDS011;55961;52.156;20.942;2023-03-14T12:49:48;10.17;;;3.20;;
68923;SDS011;55961;52.156;20.942;2023-03-14T12:52:16;6.70;;;2.90;;
68923;SDS011;55961;52.156;20.942;2023-03-14T12:55:09;8.30;;;3.25;;
68923;SDS011;55961;52.156;20.942;2023-03-14T13:00:16;9.65;;;3.50;;
68923;SDS011;55961;52.156;20.942;2023-03-14T13:02:47;8.20;;;3.40;;
68923;SDS011;55961;52.156;20.942;2023-03-14T13:05:21;10.38;;;3.75;;
68923;SDS011;55961;52.156;20.942;2023-03-14T13:10:28;7.65;;;3.00;;
68923;SDS011;55961;52.156;20.942;2023-03-14T13:12:56;5.90;;;3.08;;
68923;SDS011;55961;52.156;20.942;2023-03-14T13:15:46;7.57;;;3.03;;
68923;SDS011;55961;52.156;20.942;2023-03-14T13:26:37;5.47;;;2.80;;
68923;SDS011;55961;52.156;20.942;2023-03-14T13:29:14;8.30;;;3.90;;
68923;SDS011;55961;52.156;20.942;2023-03-14T13:31:49;7.40;;;4.10;;
68923;SDS011;55961;52.156;20.942;2023-03-14T13:34:17;10.27;;;4.10;;
68923;SDS011;55961;52.156;20.942;2023-03-14T13:36:44;8.05;;;3.90;;
68923;SDS011;55961;52.156;20.942;2023-03-14T13:39:12;8.63;;;4.53;;
68923;SDS011;55961;52.156;20.942;2023-03-14T13:41:40;9.73;;;4.03;;
68923;SDS011;55961;52.156;20.942;2023-03-14T13:44:08;7.60;;;3.58;;
68923;SDS011;55961;52.156;20.942;2023-03-14T13:46:39;11.23;;;4.32;;
68923;SDS011;55961;52.156;20.942;2023-03-14T13:49:06;10.88;;;4.20;;
68923;SDS011;55961;52.156;20.942;2023-03-14T13:51:39;12.30;;;5.00;;
68923;SDS011;55961;52.156;20.942;2023-03-14T13:54:39;9.33;;;4.23;;
68923;SDS011;55961;52.156;20.942;2023-03-14T13:57:01;9.80;;;4.32;;
68923;SDS011;55961;52.156;20.942;2023-03-14T13:59:30;12.80;;;5.00;;
68923;SDS011;55961;52.156;20.942;2023-03-14T14:01:58;11.98;;;6.50;;
68923;SDS011;55961;52.156;20.942;2023-03-14T14:04:45;12.05;;;5.93;;
68923;SDS011;55961;52.156;20.942;2023-03-14T14:07:13;10.97;;;5.90;;
68923;SDS011;55961;52.156;20.942;2023-03-14T14:09:48;14.50;;;7.35;;
68923;SDS011;55961;52.156;20.942;2023-03-14T14:12:29;12.10;;;5.72;;
68923;SDS011;55961;52.156;20.942;2023-03-14T14:15:06;17.40;;;7.28;;
68923;SDS011;55961;52.156;20.942;2023-03-14T14:17:38;16.95;;;8.85;;
68923;SDS011;55961;52.156;20.942;2023-03-14T14:20:27;21.57;;;10.87;;
68923;SDS011;55961;52.156;20.942;2023-03-14T14:23:01;17.92;;;8.02;;
68923;SDS011;55961;52.156;20.942;2023-03-14T14:25:31;14.75;;;8.70;;
68923;SDS011;55961;52.156;20.942;2023-03-14T14:27:58;11.85;;;5.82;;
68923;SDS011;55961;52.156;20.942;2023-03-14T14:30:26;10.88;;;6.95;;
68923;SDS011;55961;52.156;20.942;2023-03-14T14:33:17;13.83;;;7.47;;
68923;SDS011;55961;52.156;20.942;2023-03-14T14:35:52;9.60;;;4.60;;
68923;SDS011;55961;52.156;20.942;2023-03-14T14:38:23;11.68;;;4.97;;
68923;SDS011;55961;52.156;20.942;2023-03-14T14:40:51;15.70;;;7.95;;
68923;SDS011;55961;52.156;20.942;2023-03-14T14:43:22;9.85;;;5.28;;
68923;SDS011;55961;52.156;20.942;2023-03-14T14:45:50;10.73;;;6.40;;
68923;SDS011;55961;52.156;20.942;2023-03-14T14:48:19;10.80;;;5.25;;
68923;SDS011;55961;52.156;20.942;2023-03-14T14:53:30;12.02;;;5.55;;
68923;SDS011;55961;52.156;20.942;2023-03-14T14:56:20;19.92;;;9.85;;
68923;SDS011;55961;52.156;20.942;2023-03-14T14:58:59;18.93;;;8.40;;
68923;SDS011;55961;52.156;20.942;2023-03-14T15:04:00;15.15;;;8.38;;
68923;SDS011;55961;52.156;20.942;2023-03-14T15:06:28;17.75;;;9.48;;
68923;SDS011;55961;52.156;20.942;2023-03-14T15:08:54;25.75;;;16.30;;
68923;SDS011;55961;52.156;20.942;2023-03-14T15:11:21;19.47;;;10.90;;
68923;SDS011;55961;52.156;20.942;2023-03-14T15:13:49;13.68;;;9.57;;
68923;SDS011;55961;52.156;20.942;2023-03-14T15:16:17;11.77;;;6.07;;
68923;SDS011;55961;52.156;20.942;2023-03-14T15:18:44;13.65;;;7.60;;
68923;SDS011;55961;52.156;20.942;2023-03-14T15:21:14;12.98;;;7.88;;
68923;SDS011;55961;52.156;20.942;2023-03-14T15:23:39;12.80;;;6.00;;
68923;SDS011;55961;52.156;20.942;2023-03-14T15:26:11;13.13;;;6.20;;
68923;SDS011;55961;52.156;20.942;2023-03-14T15:28:39;11.25;;;4.85;;
68923;SDS011;55961;52.156;20.942;2023-03-14T15:31:08;12.50;;;6.35;;
68923;SDS011;55961;52.156;20.942;2023-03-14T15:33:36;11.70;;;6.50;;
68923;SDS011;55961;52.156;20.942;2023-03-14T15:36:06;12.88;;;6.75;;
68923;SDS011;55961;52.156;20.942;2023-03-14T15:38:40;10.80;;;5.20;;
68923;SDS011;55961;52.156;20.942;2023-03-14T15:41:07;14.85;;;6.57;;
68923;SDS011;55961;52.156;20.942;2023-03-14T15:43:34;18.48;;;9.88;;
68923;SDS011;55961;52.156;20.942;2023-03-14T15:46:01;19.73;;;11.53;;
68923;SDS011;55961;52.156;20.942;2023-03-14T15:48:26;20.98;;;11.27;;
68923;SDS011;55961;52.156;20.942;2023-03-14T15:50:52;21.27;;;9.40;;
68923;SDS011;55961;52.156;20.942;2023-03-14T15:53:18;23.03;;;11.80;;